sensor_id;sensor_type;location;lat;lon;timestamp;P1;durP1;ratioP1;P2;durP2;ratioP2
1613;SDS011;800;48.824;9.346;2022-09-09T00:04:09;2.20;;;1.30;;
1613;SDS011;800;48.824;9.346;2022-09-09T00:09:46;1.77;;;1.33;;
1613;SDS011;800;48.824;9.346;2022-09-09T00:12:17;1.30;;;1.20;;
1613;SDS011;800;48.824;9.346;2022-09-09T00:15:00;4.37;;;1.20;;
1613;SDS011;800;48.824;9.346;2022-09-09T00:23:28;1.30;;;1.20;;
1613;SDS011;800;48.824;9.346;2022-09-09T00:31:37;3.70;;;1.40;;
1613;SDS011;800;48.824;9.346;2022-09-09T00:36:38;2.03;;;1.23;;
1613;SDS011;800;48.824;9.346;2022-09-09T00:39:06;2.67;;;1.30;;
1613;SDS011;800;48.824;9.346;2022-09-09T00:42:05;8.73;;;1.53;;
1613;SDS011;800;48.824;9.346;2022-09-09T00:44:46;2.30;;;1.20;;
1613;SDS011;800;48.824;9.346;2022-09-09T00:47:52;2.07;;;1.50;;
1613;SDS011;800;48.824;9.346;2022-09-09T00:50:36;1.67;;;1.57;;
1613;SDS011;800;48.824;9.346;2022-09-09T00:56:26;2.30;;;1.40;;
1613;SDS011;800;48.824;9.346;2022-09-09T00:59:07;3.07;;;1.80;;
1613;SDS011;800;48.824;9.346;2022-09-09T01:01:53;1.97;;;1.53;;
1613;SDS011;800;48.824;9.346;2022-09-09T01:04:22;2.50;;;1.60;;
1613;SDS011;800;48.824;9.346;2022-09-09T01:06:57;1.83;;;1.40;;
1613;SDS011;800;48.824;9.346;2022-09-09T01:15:10;3.83;;;1.63;;
1613;SDS011;800;48.824;9.346;2022-09-09T01:17:52;2.03;;;1.80;;
1613;SDS011;800;48.824;9.346;2022-09-09T01:28:57;5.33;;;2.50;;
1613;SDS011;800;48.824;9.346;2022-09-09T01:31:27;3.43;;;1.60;;
1613;SDS011;800;48.824;9.346;2022-09-09T01:33:57;2.13;;;1.50;;
1613;SDS011;800;48.824;9.346;2022-09-09T01:36:28;2.73;;;1.50;;
1613;SDS011;800;48.824;9.346;2022-09-09T01:38:59;1.77;;;1.50;;
1613;SDS011;800;48.824;9.346;2022-09-09T01:41:24;3.50;;;1.40;;
1613;SDS011;800;48.824;9.346;2022-09-09T01:43:50;1.80;;;1.30;;
1613;SDS011;800;48.824;9.346;2022-09-09T01:46:16;2.33;;;1.60;;
1613;SDS011;800;48.824;9.346;2022-09-09T01:48:46;3.87;;;1.77;;
1613;SDS011;800;48.824;9.346;2022-09-09T01:51:11;13.00;;;2.00;;
1613;SDS011;800;48.824;9.346;2022-09-09T01:53:37;1.70;;;1.20;;
1613;SDS011;800;48.824;9.346;2022-09-09T01:58:52;1.43;;;1.23;;
1613;SDS011;800;48.824;9.346;2022-09-09T02:01:38;2.10;;;1.23;;
1613;SDS011;800;48.824;9.346;2022-09-09T02:04:18;3.03;;;1.77;;
1613;SDS011;800;48.824;9.346;2022-09-09T02:06:52;1.23;;;1.13;;
1613;SDS011;800;48.824;9.346;2022-09-09T02:09:21;3.77;;;1.40;;
1613;SDS011;800;48.824;9.346;2022-09-09T02:11:49;1.73;;;1.27;;
1613;SDS011;800;48.824;9.346;2022-09-09T02:14:25;2.63;;;1.47;;
1613;SDS011;800;48.824;9.346;2022-09-09T02:16:59;2.70;;;1.40;;
1613;SDS011;800;48.824;9.346;2022-09-09T02:19:36;1.47;;;1.17;;
1613;SDS011;800;48.824;9.346;2022-09-09T02:22:06;2.50;;;1.60;;
1613;SDS011;800;48.824;9.346;2022-09-09T02:24:35;3.13;;;1.30;;
1613;SDS011;800;48.824;9.346;2022-09-09T02:27:04;2.83;;;1.30;;
1613;SDS011;800;48.824;9.346;2022-09-09T02:29:34;1.10;;;1.00;;
1613;SDS011;800;48.824;9.346;2022-09-09T02:32:06;1.57;;;1.30;;
1613;SDS011;800;48.824;9.346;2022-09-09T02:34:38;1.97;;;1.13;;
1613;SDS011;800;48.824;9.346;2022-09-09T02:37:07;1.63;;;1.30;;
1613;SDS011;800;48.824;9.346;2022-09-09T02:39:35;1.60;;;1.43;;
1613;SDS011;800;48.824;9.346;2022-09-09T02:42:01;1.47;;;1.37;;
1613;SDS011;800;48.824;9.346;2022-09-09T02:44:28;1.40;;;1.30;;
1613;SDS011;800;48.824;9.346;2022-09-09T02:49:55;3.20;;;1.53;;
1613;SDS011;800;48.824;9.346;2022-09-09T02:55:29;4.73;;;1.40;;
1613;SDS011;800;48.824;9.346;2022-09-09T02:58:01;1.30;;;1.20;;
1613;SDS011;800;48.824;9.346;2022-09-09T03:00:32;3.13;;;1.57;;
1613;SDS011;800;48.824;9.346;2022-09-09T03:02:58;1.97;;;1.30;;
1613;SDS011;800;48.824;9.346;2022-09-09T03:05:24;1.23;;;1.10;;
1613;SDS011;800;48.824;9.346;2022-09-09T03:07:50;1.37;;;1.10;;
1613;SDS011;800;48.824;9.346;2022-09-09T03:10:16;2.17;;;1.43;;
1613;SDS011;800;48.824;9.346;2022-09-09T03:12:42;2.00;;;1.30;;
1613;SDS011;800;48.824;9.346;2022-09-09T03:15:08;2.17;;;1.30;;
1613;SDS011;800;48.824;9.346;2022-09-09T03:17:34;1.70;;;1.33;;
1613;SDS011;800;48.824;9.346;2022-09-09T03:20:01;2.33;;;1.30;;
1613;SDS011;800;48.824;9.346;2022-09-09T03:22:28;1.43;;;1.17;;
1613;SDS011;800;48.824;9.346;2022-09-09T03:24:53;1.93;;;1.40;;
1613;SDS011;800;48.824;9.346;2022-09-09T03:27:19;3.37;;;1.40;;
1613;SDS011;800;48.824;9.346;2022-09-09T03:29:45;1.47;;;1.00;;
1613;SDS011;800;48.824;9.346;2022-09-09T03:32:11;1.30;;;1.20;;
1613;SDS011;800;48.824;9.346;2022-09-09T03:34:37;1.80;;;1.70;;
1613;SDS011;800;48.824;9.346;2022-09-09T03:37:05;2.00;;;1.70;;
1613;SDS011;800;48.824;9.346;2022-09-09T03:39:31;2.03;;;1.37;;
1613;SDS011;800;48.824;9.346;2022-09-09T03:41:57;2.70;;;1.53;;
1613;SDS011;800;48.824;9.346;2022-09-09T03:44:22;2.80;;;1.40;;
1613;SDS011;800;48.824;9.346;2022-09-09T03:46:48;2.60;;;1.50;;
1613;SDS011;800;48.824;9.346;2022-09-09T03:49:13;1.83;;;1.50;;
1613;SDS011;800;48.824;9.346;2022-09-09T03:51:40;4.27;;;1.50;;
1613;SDS011;800;48.824;9.346;2022-09-09T03:54:06;4.67;;;1.50;;
1613;SDS011;800;48.824;9.346;2022-09-09T03:56:35;3.50;;;1.50;;
1613;SDS011;800;48.824;9.346;2022-09-09T03:59:02;3.50;;;1.30;;
1613;SDS011;800;48.824;9.346;2022-09-09T04:01:28;2.60;;;1.50;;
1613;SDS011;800;48.824;9.346;2022-09-09T04:03:54;2.43;;;1.27;;
1613;SDS011;800;48.824;9.346;2022-09-09T04:06:23;2.20;;;1.37;;
1613;SDS011;800;48.824;9.346;2022-09-09T04:08:49;1.73;;;1.30;;
1613;SDS011;800;48.824;9.346;2022-09-09T04:11:17;3.77;;;1.40;;
1613;SDS011;800;48.824;9.346;2022-09-09T04:13:42;1.73;;;1.63;;
1613;SDS011;800;48.824;9.346;2022-09-09T04:16:09;2.87;;;1.40;;
1613;SDS011;800;48.824;9.346;2022-09-09T04:18:36;3.93;;;1.27;;
1613;SDS011;800;48.824;9.346;2022-09-09T04:21:02;2.17;;;1.50;;
1613;SDS011;800;48.824;9.346;2022-09-09T04:23:29;2.50;;;1.27;;
1613;SDS011;800;48.824;9.346;2022-09-09T04:25:55;4.03;;;1.43;;
1613;SDS011;800;48.824;9.346;2022-09-09T04:28:22;3.20;;;1.30;;
1613;SDS011;800;48.824;9.346;2022-09-09T04:30:49;4.50;;;1.60;;
1613;SDS011;800;48.824;9.346;2022-09-09T04:33:16;1.60;;;1.40;;
1613;SDS011;800;48.824;9.346;2022-09-09T04:35:45;2.27;;;1.43;;
1613;SDS011;800;48.824;9.346;2022-09-09T04:38:12;3.60;;;1.87;;
1613;SDS011;800;48.824;9.346;2022-09-09T04:40:38;4.90;;;1.23;;
1613;SDS011;800;48.824;9.346;2022-09-09T04:43:08;3.90;;;1.20;;
1613;SDS011;800;48.824;9.346;2022-09-09T04:45:33;4.30;;;1.20;;
1613;SDS011;800;48.824;9.346;2022-09-09T04:47:59;2.70;;;1.27;;
1613;SDS011;800;48.824;9.346;2022-09-09T04:50:25;1.80;;;1.30;;
1613;SDS011;800;48.824;9.346;2022-09-09T04:52:51;3.03;;;1.60;;
1613;SDS011;800;48.824;9.346;2022-09-09T04:55:17;1.93;;;1.50;;
1613;SDS011;800;48.824;9.346;2022-09-09T04:57:42;2.83;;;1.30;;
1613;SDS011;800;48.824;9.346;2022-09-09T05:00:08;2.80;;;1.50;;
1613;SDS011;800;48.824;9.346;2022-09-09T05:02:38;2.10;;;1.20;;
1613;SDS011;800;48.824;9.346;2022-09-09T05:05:04;1.70;;;1.30;;
1613;SDS011;800;48.824;9.346;2022-09-09T05:07:31;2.50;;;1.60;;
1613;SDS011;800;48.824;9.346;2022-09-09T05:09:57;2.17;;;1.50;;
1613;SDS011;800;48.824;9.346;2022-09-09T05:12:23;3.47;;;1.60;;
1613;SDS011;800;48.824;9.346;2022-09-09T05:14:50;5.10;;;2.30;;
1613;SDS011;800;48.824;9.346;2022-09-09T05:17:16;3.37;;;1.30;;
1613;SDS011;800;48.824;9.346;2022-09-09T05:19:42;3.80;;;1.50;;
1613;SDS011;800;48.824;9.346;2022-09-09T05:22:09;1.60;;;1.30;;
1613;SDS011;800;48.824;9.346;2022-09-09T05:24:36;1.77;;;1.67;;
1613;SDS011;800;48.824;9.346;2022-09-09T05:27:01;5.53;;;1.87;;
1613;SDS011;800;48.824;9.346;2022-09-09T05:29:27;3.10;;;1.50;;
1613;SDS011;800;48.824;9.346;2022-09-09T05:31:53;3.23;;;1.43;;
1613;SDS011;800;48.824;9.346;2022-09-09T05:34:19;2.20;;;1.47;;
1613;SDS011;800;48.824;9.346;2022-09-09T05:36:45;3.83;;;1.50;;
1613;SDS011;800;48.824;9.346;2022-09-09T05:39:11;4.43;;;1.67;;
1613;SDS011;800;48.824;9.346;2022-09-09T05:41:37;3.10;;;1.43;;
1613;SDS011;800;48.824;9.346;2022-09-09T05:44:02;3.33;;;1.10;;
1613;SDS011;800;48.824;9.346;2022-09-09T05:46:28;2.47;;;1.13;;
1613;SDS011;800;48.824;9.346;2022-09-09T05:48:55;5.33;;;1.50;;
1613;SDS011;800;48.824;9.346;2022-09-09T05:51:22;2.70;;;1.33;;
1613;SDS011;800;48.824;9.346;2022-09-09T05:53:49;3.10;;;1.40;;
1613;SDS011;800;48.824;9.346;2022-09-09T05:56:23;2.50;;;1.50;;
1613;SDS011;800;48.824;9.346;2022-09-09T05:58:50;5.10;;;1.73;;
1613;SDS011;800;48.824;9.346;2022-09-09T06:01:20;2.30;;;1.30;;
1613;SDS011;800;48.824;9.346;2022-09-09T06:03:51;4.47;;;1.40;;
1613;SDS011;800;48.824;9.346;2022-09-09T06:06:18;3.77;;;1.93;;
1613;SDS011;800;48.824;9.346;2022-09-09T06:08:47;3.17;;;1.43;;
1613;SDS011;800;48.824;9.346;2022-09-09T06:11:16;5.83;;;1.53;;
1613;SDS011;800;48.824;9.346;2022-09-09T06:13:44;7.43;;;1.53;;
1613;SDS011;800;48.824;9.346;2022-09-09T06:16:10;1.40;;;1.30;;
1613;SDS011;800;48.824;9.346;2022-09-09T06:18:37;2.40;;;1.47;;
1613;SDS011;800;48.824;9.346;2022-09-09T06:21:04;3.30;;;1.40;;
1613;SDS011;800;48.824;9.346;2022-09-09T06:23:32;3.63;;;1.73;;
1613;SDS011;800;48.824;9.346;2022-09-09T06:26:07;3.60;;;1.33;;
1613;SDS011;800;48.824;9.346;2022-09-09T06:28:36;1.77;;;1.63;;
1613;SDS011;800;48.824;9.346;2022-09-09T06:31:06;2.40;;;1.67;;
1613;SDS011;800;48.824;9.346;2022-09-09T06:33:34;1.60;;;1.27;;
1613;SDS011;800;48.824;9.346;2022-09-09T06:36:07;2.30;;;1.20;;
1613;SDS011;800;48.824;9.346;2022-09-09T06:38:37;3.50;;;1.10;;
1613;SDS011;800;48.824;9.346;2022-09-09T06:41:03;2.20;;;1.20;;
1613;SDS011;800;48.824;9.346;2022-09-09T06:43:30;3.43;;;1.50;;
1613;SDS011;800;48.824;9.346;2022-09-09T06:45:57;3.20;;;1.50;;
1613;SDS011;800;48.824;9.346;2022-09-09T06:48:24;2.00;;;1.63;;
1613;SDS011;800;48.824;9.346;2022-09-09T06:51:00;5.73;;;1.40;;
1613;SDS011;800;48.824;9.346;2022-09-09T06:53:30;1.80;;;1.33;;
1613;SDS011;800;48.824;9.346;2022-09-09T06:55:58;1.50;;;1.23;;
1613;SDS011;800;48.824;9.346;2022-09-09T06:58:42;2.17;;;1.10;;
1613;SDS011;800;48.824;9.346;2022-09-09T07:01:09;3.50;;;1.60;;
1613;SDS011;800;48.824;9.346;2022-09-09T07:03:39;4.20;;;1.80;;
1613;SDS011;800;48.824;9.346;2022-09-09T07:06:06;1.83;;;1.27;;
1613;SDS011;800;48.824;9.346;2022-09-09T07:08:34;1.53;;;1.10;;
1613;SDS011;800;48.824;9.346;2022-09-09T07:11:06;4.57;;;1.20;;
1613;SDS011;800;48.824;9.346;2022-09-09T07:13:33;2.80;;;1.30;;
1613;SDS011;800;48.824;9.346;2022-09-09T07:16:10;1.77;;;1.63;;
1613;SDS011;800;48.824;9.346;2022-09-09T07:18:41;1.40;;;1.30;;
1613;SDS011;800;48.824;9.346;2022-09-09T07:21:07;3.47;;;1.40;;
1613;SDS011;800;48.824;9.346;2022-09-09T07:23:34;4.00;;;1.70;;
1613;SDS011;800;48.824;9.346;2022-09-09T07:26:06;2.37;;;1.43;;
1613;SDS011;800;48.824;9.346;2022-09-09T07:28:33;3.57;;;1.40;;
1613;SDS011;800;48.824;9.346;2022-09-09T07:31:00;1.87;;;1.30;;
1613;SDS011;800;48.824;9.346;2022-09-09T07:33:29;3.57;;;1.63;;
1613;SDS011;800;48.824;9.346;2022-09-09T07:36:04;2.93;;;1.33;;
1613;SDS011;800;48.824;9.346;2022-09-09T07:38:32;2.13;;;1.60;;
1613;SDS011;800;48.824;9.346;2022-09-09T07:41:06;2.07;;;1.50;;
1613;SDS011;800;48.824;9.346;2022-09-09T07:43:37;5.83;;;1.33;;
1613;SDS011;800;48.824;9.346;2022-09-09T07:46:04;3.83;;;1.53;;
1613;SDS011;800;48.824;9.346;2022-09-09T07:48:30;1.90;;;1.80;;
1613;SDS011;800;48.824;9.346;2022-09-09T07:51:57;1.43;;;1.30;;
1613;SDS011;800;48.824;9.346;2022-09-09T07:53:56;2.53;;;1.67;;
1613;SDS011;800;48.824;9.346;2022-09-09T07:56:24;5.10;;;1.80;;
1613;SDS011;800;48.824;9.346;2022-09-09T07:58:51;4.60;;;1.60;;
1613;SDS011;800;48.824;9.346;2022-09-09T08:01:20;4.73;;;1.33;;
1613;SDS011;800;48.824;9.346;2022-09-09T08:03:54;4.70;;;1.53;;
1613;SDS011;800;48.824;9.346;2022-09-09T08:06:30;2.70;;;1.60;;
1613;SDS011;800;48.824;9.346;2022-09-09T08:08:58;1.77;;;1.50;;
1613;SDS011;800;48.824;9.346;2022-09-09T08:11:25;3.17;;;1.60;;
1613;SDS011;800;48.824;9.346;2022-09-09T08:13:52;1.83;;;1.50;;
1613;SDS011;800;48.824;9.346;2022-09-09T08:16:19;2.77;;;1.60;;
1613;SDS011;800;48.824;9.346;2022-09-09T08:18:47;1.83;;;1.73;;
1613;SDS011;800;48.824;9.346;2022-09-09T08:21:15;2.83;;;1.70;;
1613;SDS011;800;48.824;9.346;2022-09-09T08:23:44;2.00;;;1.30;;
1613;SDS011;800;48.824;9.346;2022-09-09T08:26:18;2.33;;;1.50;;
1613;SDS011;800;48.824;9.346;2022-09-09T08:28:47;3.33;;;1.80;;
1613;SDS011;800;48.824;9.346;2022-09-09T08:31:17;4.00;;;1.60;;
1613;SDS011;800;48.824;9.346;2022-09-09T08:33:44;2.60;;;1.30;;
1613;SDS011;800;48.824;9.346;2022-09-09T08:36:22;4.13;;;1.60;;
1613;SDS011;800;48.824;9.346;2022-09-09T08:38:51;4.50;;;1.43;;
1613;SDS011;800;48.824;9.346;2022-09-09T08:52:36;2.70;;;1.50;;
1613;SDS011;800;48.824;9.346;2022-09-09T08:58:04;1.90;;;1.40;;
1613;SDS011;800;48.824;9.346;2022-09-09T09:09:02;3.73;;;1.57;;
1613;SDS011;800;48.824;9.346;2022-09-09T09:11:48;2.83;;;1.63;;
1613;SDS011;800;48.824;9.346;2022-09-09T09:14:26;2.43;;;1.07;;
1613;SDS011;800;48.824;9.346;2022-09-09T09:19:57;2.43;;;1.13;;
1613;SDS011;800;48.824;9.346;2022-09-09T09:25:27;2.53;;;1.30;;
1613;SDS011;800;48.824;9.346;2022-09-09T09:30:40;3.70;;;1.47;;
1613;SDS011;800;48.824;9.346;2022-09-09T09:33:15;2.20;;;1.30;;
1613;SDS011;800;48.824;9.346;2022-09-09T09:35:49;4.17;;;1.30;;
1613;SDS011;800;48.824;9.346;2022-09-09T09:38:16;3.03;;;1.60;;
1613;SDS011;800;48.824;9.346;2022-09-09T09:40:57;1.80;;;0.93;;
1613;SDS011;800;48.824;9.346;2022-09-09T09:43:26;2.40;;;1.40;;
1613;SDS011;800;48.824;9.346;2022-09-09T09:45:55;3.70;;;1.33;;
1613;SDS011;800;48.824;9.346;2022-09-09T09:48:22;4.53;;;1.27;;
1613;SDS011;800;48.824;9.346;2022-09-09T09:50:50;1.43;;;1.10;;
1613;SDS011;800;48.824;9.346;2022-09-09T09:53:46;7.83;;;1.07;;
1613;SDS011;800;48.824;9.346;2022-09-09T09:56:14;0.70;;;0.70;;
1613;SDS011;800;48.824;9.346;2022-09-09T10:03:53;3.03;;;0.80;;
1613;SDS011;800;48.824;9.346;2022-09-09T10:08:58;1.20;;;0.60;;
1613;SDS011;800;48.824;9.346;2022-09-09T10:13:57;1.30;;;0.90;;
1613;SDS011;800;48.824;9.346;2022-09-09T10:19:08;2.47;;;0.70;;
1613;SDS011;800;48.824;9.346;2022-09-09T10:24:18;2.40;;;0.90;;
1613;SDS011;800;48.824;9.346;2022-09-09T10:27:11;2.13;;;1.13;;
1613;SDS011;800;48.824;9.346;2022-09-09T10:30:17;1.07;;;0.70;;
1613;SDS011;800;48.824;9.346;2022-09-09T10:32:58;2.40;;;0.93;;
1613;SDS011;800;48.824;9.346;2022-09-09T10:38:17;2.80;;;0.93;;
1613;SDS011;800;48.824;9.346;2022-09-09T10:41:00;3.50;;;1.20;;
1613;SDS011;800;48.824;9.346;2022-09-09T10:46:16;2.90;;;1.00;;
1613;SDS011;800;48.824;9.346;2022-09-09T10:57:33;1.53;;;0.97;;
1613;SDS011;800;48.824;9.346;2022-09-09T11:00:22;2.70;;;1.23;;
1613;SDS011;800;48.824;9.346;2022-09-09T11:02:59;1.53;;;1.00;;
1613;SDS011;800;48.824;9.346;2022-09-09T11:08:26;1.60;;;1.00;;
1613;SDS011;800;48.824;9.346;2022-09-09T11:16:33;1.47;;;0.90;;
1613;SDS011;800;48.824;9.346;2022-09-09T11:19:16;3.43;;;1.23;;
1613;SDS011;800;48.824;9.346;2022-09-09T11:21:59;4.20;;;1.20;;
1613;SDS011;800;48.824;9.346;2022-09-09T11:27:13;4.40;;;1.70;;
1613;SDS011;800;48.824;9.346;2022-09-09T11:35:30;3.60;;;2.03;;
1613;SDS011;800;48.824;9.346;2022-09-09T11:38:25;2.57;;;1.37;;
1613;SDS011;800;48.824;9.346;2022-09-09T11:40:58;2.60;;;1.27;;
1613;SDS011;800;48.824;9.346;2022-09-09T11:43:31;2.67;;;1.10;;
1613;SDS011;800;48.824;9.346;2022-09-09T11:46:09;1.30;;;1.00;;
1613;SDS011;800;48.824;9.346;2022-09-09T11:48:38;2.60;;;1.97;;
1613;SDS011;800;48.824;9.346;2022-09-09T11:51:08;2.37;;;1.20;;
1613;SDS011;800;48.824;9.346;2022-09-09T11:53:46;2.00;;;1.37;;
1613;SDS011;800;48.824;9.346;2022-09-09T12:01:45;3.07;;;1.23;;
1613;SDS011;800;48.824;9.346;2022-09-09T12:04:16;0.93;;;0.83;;
1613;SDS011;800;48.824;9.346;2022-09-09T12:09:24;2.07;;;1.10;;
1613;SDS011;800;48.824;9.346;2022-09-09T12:12:06;1.77;;;0.90;;
1613;SDS011;800;48.824;9.346;2022-09-09T12:14:39;2.40;;;1.00;;
1613;SDS011;800;48.824;9.346;2022-09-09T12:17:20;0.80;;;0.70;;
1613;SDS011;800;48.824;9.346;2022-09-09T12:19:48;3.90;;;0.87;;
1613;SDS011;800;48.824;9.346;2022-09-09T12:22:35;1.43;;;0.90;;
1613;SDS011;800;48.824;9.346;2022-09-09T12:30:47;1.53;;;0.63;;
1613;SDS011;800;48.824;9.346;2022-09-09T12:33:22;0.77;;;0.67;;
1613;SDS011;800;48.824;9.346;2022-09-09T12:35:54;2.00;;;0.93;;
1613;SDS011;800;48.824;9.346;2022-09-09T12:38:35;1.67;;;0.70;;
1613;SDS011;800;48.824;9.346;2022-09-09T12:41:03;1.90;;;0.80;;
1613;SDS011;800;48.824;9.346;2022-09-09T12:43:29;1.37;;;0.80;;
1613;SDS011;800;48.824;9.346;2022-09-09T12:46:02;1.83;;;0.70;;
1613;SDS011;800;48.824;9.346;2022-09-09T12:48:37;0.67;;;0.60;;
1613;SDS011;800;48.824;9.346;2022-09-09T12:51:14;2.93;;;0.83;;
1613;SDS011;800;48.824;9.346;2022-09-09T12:53:53;1.57;;;0.80;;
1613;SDS011;800;48.824;9.346;2022-09-09T12:56:20;2.20;;;0.70;;
1613;SDS011;800;48.824;9.346;2022-09-09T12:58:49;0.80;;;0.70;;
1613;SDS011;800;48.824;9.346;2022-09-09T13:03:51;1.30;;;0.80;;
1613;SDS011;800;48.824;9.346;2022-09-09T13:06:25;4.73;;;0.97;;
1613;SDS011;800;48.824;9.346;2022-09-09T13:08:53;1.43;;;0.70;;
1613;SDS011;800;48.824;9.346;2022-09-09T13:11:21;3.37;;;1.57;;
1613;SDS011;800;48.824;9.346;2022-09-09T13:13:51;1.20;;;1.00;;
1613;SDS011;800;48.824;9.346;2022-09-09T13:16:23;2.47;;;1.20;;
1613;SDS011;800;48.824;9.346;2022-09-09T13:18:56;1.60;;;0.70;;
1613;SDS011;800;48.824;9.346;2022-09-09T13:21:34;0.80;;;0.80;;
1613;SDS011;800;48.824;9.346;2022-09-09T13:24:04;1.10;;;0.80;;
1613;SDS011;800;48.824;9.346;2022-09-09T13:26:32;1.47;;;0.73;;
1613;SDS011;800;48.824;9.346;2022-09-09T13:29:17;2.00;;;1.13;;
1613;SDS011;800;48.824;9.346;2022-09-09T13:31:44;1.50;;;1.00;;
1613;SDS011;800;48.824;9.346;2022-09-09T13:34:13;1.80;;;0.90;;
1613;SDS011;800;48.824;9.346;2022-09-09T13:36:59;1.87;;;1.07;;
1613;SDS011;800;48.824;9.346;2022-09-09T13:39:27;1.20;;;0.80;;
1613;SDS011;800;48.824;9.346;2022-09-09T13:41:53;1.33;;;0.80;;
1613;SDS011;800;48.824;9.346;2022-09-09T13:44:23;1.17;;;0.60;;
1613;SDS011;800;48.824;9.346;2022-09-09T13:49:46;1.70;;;0.80;;
1613;SDS011;800;48.824;9.346;2022-09-09T13:54:39;0.70;;;0.70;;
1613;SDS011;800;48.824;9.346;2022-09-09T13:57:05;1.33;;;0.90;;
1613;SDS011;800;48.824;9.346;2022-09-09T13:59:43;1.77;;;1.37;;
1613;SDS011;800;48.824;9.346;2022-09-09T14:02:09;2.00;;;0.63;;
1613;SDS011;800;48.824;9.346;2022-09-09T14:04:34;1.97;;;1.10;;
1613;SDS011;800;48.824;9.346;2022-09-09T14:07:00;0.90;;;0.80;;
1613;SDS011;800;48.824;9.346;2022-09-09T14:09:26;0.83;;;0.83;;
1613;SDS011;800;48.824;9.346;2022-09-09T14:11:52;2.33;;;0.63;;
1613;SDS011;800;48.824;9.346;2022-09-09T14:14:18;2.83;;;0.90;;
1613;SDS011;800;48.824;9.346;2022-09-09T14:16:43;1.00;;;0.60;;
1613;SDS011;800;48.824;9.346;2022-09-09T14:19:09;1.03;;;0.73;;
1613;SDS011;800;48.824;9.346;2022-09-09T14:21:35;1.00;;;0.60;;
1613;SDS011;800;48.824;9.346;2022-09-09T14:24:00;2.73;;;0.93;;
1613;SDS011;800;48.824;9.346;2022-09-09T14:26:26;0.87;;;0.77;;
1613;SDS011;800;48.824;9.346;2022-09-09T14:28:53;1.40;;;0.70;;
1613;SDS011;800;48.824;9.346;2022-09-09T14:31:19;3.90;;;0.90;;
1613;SDS011;800;48.824;9.346;2022-09-09T14:33:45;0.90;;;0.80;;
1613;SDS011;800;48.824;9.346;2022-09-09T14:36:12;2.83;;;0.90;;
1613;SDS011;800;48.824;9.346;2022-09-09T14:38:38;1.70;;;1.00;;
1613;SDS011;800;48.824;9.346;2022-09-09T14:41:11;2.03;;;1.00;;
1613;SDS011;800;48.824;9.346;2022-09-09T14:43:38;1.50;;;0.60;;
1613;SDS011;800;48.824;9.346;2022-09-09T14:46:08;2.00;;;0.70;;
1613;SDS011;800;48.824;9.346;2022-09-09T14:48:35;1.00;;;0.80;;
1613;SDS011;800;48.824;9.346;2022-09-09T14:51:08;1.43;;;0.70;;
1613;SDS011;800;48.824;9.346;2022-09-09T14:53:42;2.23;;;1.27;;
1613;SDS011;800;48.824;9.346;2022-09-09T14:56:16;1.13;;;0.80;;
1613;SDS011;800;48.824;9.346;2022-09-09T14:58:43;0.90;;;0.70;;
1613;SDS011;800;48.824;9.346;2022-09-09T15:01:12;0.90;;;0.80;;
1613;SDS011;800;48.824;9.346;2022-09-09T15:03:40;2.30;;;0.93;;
1613;SDS011;800;48.824;9.346;2022-09-09T15:06:07;2.40;;;0.70;;
1613;SDS011;800;48.824;9.346;2022-09-09T15:08:35;1.50;;;1.03;;
1613;SDS011;800;48.824;9.346;2022-09-09T15:11:01;0.90;;;0.80;;
1613;SDS011;800;48.824;9.346;2022-09-09T15:13:28;0.90;;;0.87;;
1613;SDS011;800;48.824;9.346;2022-09-09T15:15:53;1.00;;;0.70;;
1613;SDS011;800;48.824;9.346;2022-09-09T15:18:20;1.13;;;0.80;;
1613;SDS011;800;48.824;9.346;2022-09-09T15:20:46;2.30;;;0.90;;
1613;SDS011;800;48.824;9.346;2022-09-09T15:23:12;1.30;;;0.73;;
1613;SDS011;800;48.824;9.346;2022-09-09T15:25:49;1.73;;;0.97;;
1613;SDS011;800;48.824;9.346;2022-09-09T15:28:19;1.47;;;0.70;;
1613;SDS011;800;48.824;9.346;2022-09-09T15:30:48;2.00;;;0.70;;
1613;SDS011;800;48.824;9.346;2022-09-09T15:33:16;1.00;;;0.80;;
1613;SDS011;800;48.824;9.346;2022-09-09T15:35:42;2.00;;;0.80;;
1613;SDS011;800;48.824;9.346;2022-09-09T15:38:08;2.30;;;0.70;;
1613;SDS011;800;48.824;9.346;2022-09-09T15:40:34;1.43;;;1.10;;
1613;SDS011;800;48.824;9.346;2022-09-09T15:42:59;0.97;;;0.60;;
1613;SDS011;800;48.824;9.346;2022-09-09T15:45:25;1.43;;;0.60;;
1613;SDS011;800;48.824;9.346;2022-09-09T15:47:51;0.67;;;0.60;;
1613;SDS011;800;48.824;9.346;2022-09-09T15:50:17;2.43;;;0.97;;
1613;SDS011;800;48.824;9.346;2022-09-09T15:52:43;0.80;;;0.77;;
1613;SDS011;800;48.824;9.346;2022-09-09T15:55:09;2.00;;;0.80;;
1613;SDS011;800;48.824;9.346;2022-09-09T15:57:34;2.50;;;0.80;;
1613;SDS011;800;48.824;9.346;2022-09-09T16:00:01;1.90;;;0.90;;
1613;SDS011;800;48.824;9.346;2022-09-09T16:02:31;0.90;;;0.63;;
1613;SDS011;800;48.824;9.346;2022-09-09T16:04:57;2.10;;;1.20;;
1613;SDS011;800;48.824;9.346;2022-09-09T16:07:23;3.13;;;0.87;;
1613;SDS011;800;48.824;9.346;2022-09-09T16:09:49;2.10;;;1.20;;
1613;SDS011;800;48.824;9.346;2022-09-09T16:12:16;2.40;;;0.83;;
1613;SDS011;800;48.824;9.346;2022-09-09T16:14:42;1.57;;;1.10;;
1613;SDS011;800;48.824;9.346;2022-09-09T16:17:07;1.93;;;0.77;;
1613;SDS011;800;48.824;9.346;2022-09-09T16:19:33;1.40;;;1.00;;
1613;SDS011;800;48.824;9.346;2022-09-09T16:21:59;1.20;;;0.83;;
1613;SDS011;800;48.824;9.346;2022-09-09T16:24:25;1.53;;;0.90;;
1613;SDS011;800;48.824;9.346;2022-09-09T16:26:51;2.10;;;1.00;;
1613;SDS011;800;48.824;9.346;2022-09-09T16:29:19;1.80;;;0.93;;
1613;SDS011;800;48.824;9.346;2022-09-09T16:31:49;4.73;;;1.07;;
1613;SDS011;800;48.824;9.346;2022-09-09T16:34:16;3.33;;;1.00;;
1613;SDS011;800;48.824;9.346;2022-09-09T16:36:43;1.40;;;0.90;;
1613;SDS011;800;48.824;9.346;2022-09-09T16:39:10;2.37;;;1.20;;
1613;SDS011;800;48.824;9.346;2022-09-09T16:41:38;1.83;;;1.10;;
1613;SDS011;800;48.824;9.346;2022-09-09T16:44:06;2.03;;;0.73;;
1613;SDS011;800;48.824;9.346;2022-09-09T16:46:34;2.03;;;0.90;;
1613;SDS011;800;48.824;9.346;2022-09-09T16:49:03;1.40;;;0.80;;
1613;SDS011;800;48.824;9.346;2022-09-09T16:51:32;1.77;;;0.70;;
1613;SDS011;800;48.824;9.346;2022-09-09T16:53:59;1.10;;;0.60;;
1613;SDS011;800;48.824;9.346;2022-09-09T16:56:27;2.03;;;0.80;;
1613;SDS011;800;48.824;9.346;2022-09-09T16:58:58;3.13;;;1.07;;
1613;SDS011;800;48.824;9.346;2022-09-09T17:01:26;1.87;;;0.80;;
1613;SDS011;800;48.824;9.346;2022-09-09T17:03:57;1.10;;;1.00;;
1613;SDS011;800;48.824;9.346;2022-09-09T17:06:26;1.33;;;1.00;;
1613;SDS011;800;48.824;9.346;2022-09-09T17:08:59;1.37;;;0.70;;
1613;SDS011;800;48.824;9.346;2022-09-09T17:11:26;0.80;;;0.70;;
1613;SDS011;800;48.824;9.346;2022-09-09T17:13:53;1.53;;;1.10;;
1613;SDS011;800;48.824;9.346;2022-09-09T17:16:20;1.07;;;0.97;;
1613;SDS011;800;48.824;9.346;2022-09-09T17:18:48;1.10;;;0.90;;
1613;SDS011;800;48.824;9.346;2022-09-09T17:21:17;0.80;;;0.70;;
1613;SDS011;800;48.824;9.346;2022-09-09T17:23:44;0.80;;;0.70;;
1613;SDS011;800;48.824;9.346;2022-09-09T17:26:11;1.30;;;0.77;;
1613;SDS011;800;48.824;9.346;2022-09-09T17:28:39;0.93;;;0.90;;
1613;SDS011;800;48.824;9.346;2022-09-09T17:31:06;1.53;;;0.80;;
1613;SDS011;800;48.824;9.346;2022-09-09T17:33:34;1.67;;;1.20;;
1613;SDS011;800;48.824;9.346;2022-09-09T17:36:02;2.07;;;0.90;;
1613;SDS011;800;48.824;9.346;2022-09-09T17:38:39;0.73;;;0.73;;
1613;SDS011;800;48.824;9.346;2022-09-09T17:41:08;1.10;;;0.80;;
1613;SDS011;800;48.824;9.346;2022-09-09T17:43:36;1.23;;;1.13;;
1613;SDS011;800;48.824;9.346;2022-09-09T17:46:09;2.30;;;1.40;;
1613;SDS011;800;48.824;9.346;2022-09-09T17:48:46;1.30;;;1.20;;
1613;SDS011;800;48.824;9.346;2022-09-09T17:51:13;1.90;;;1.10;;
1613;SDS011;800;48.824;9.346;2022-09-09T17:53:42;1.70;;;1.20;;
1613;SDS011;800;48.824;9.346;2022-09-09T17:56:11;1.70;;;1.50;;
1613;SDS011;800;48.824;9.346;2022-09-09T17:58:38;3.50;;;2.13;;
1613;SDS011;800;48.824;9.346;2022-09-09T18:01:11;1.80;;;1.70;;
1613;SDS011;800;48.824;9.346;2022-09-09T18:03:41;1.70;;;1.40;;
1613;SDS011;800;48.824;9.346;2022-09-09T18:06:09;1.17;;;1.00;;
1613;SDS011;800;48.824;9.346;2022-09-09T18:08:40;0.87;;;0.87;;
1613;SDS011;800;48.824;9.346;2022-09-09T18:11:07;1.07;;;0.80;;
1613;SDS011;800;48.824;9.346;2022-09-09T18:13:33;2.93;;;0.97;;